sensor_id;sensor_type;location;lat;lon;timestamp;P1;durP1;ratioP1;P2;durP2;ratioP2
14241;SDS011;7205;50.864;12.766;2022-11-20T00:01:05;27.07;;;15.40;;
14241;SDS011;7205;50.864;12.766;2022-11-20T00:03:32;27.77;;;15.73;;
14241;SDS011;7205;50.864;12.766;2022-11-20T00:05:59;24.67;;;14.90;;
14241;SDS011;7205;50.864;12.766;2022-11-20T00:08:26;27.20;;;16.00;;
14241;SDS011;7205;50.864;12.766;2022-11-20T00:11:01;23.63;;;15.53;;
14241;SDS011;7205;50.864;12.766;2022-11-20T00:13:30;24.67;;;14.87;;
14241;SDS011;7205;50.864;12.766;2022-11-20T00:15:57;24.53;;;14.97;;
14241;SDS011;7205;50.864;12.766;2022-11-20T00:18:34;25.17;;;14.80;;
14241;SDS011;7205;50.864;12.766;2022-11-20T00:21:32;25.80;;;15.13;;
14241;SDS011;7205;50.864;12.766;2022-11-20T00:23:59;25.10;;;15.37;;
14241;SDS011;7205;50.864;12.766;2022-11-20T00:26:32;25.67;;;15.23;;
14241;SDS011;7205;50.864;12.766;2022-11-20T00:29:01;27.03;;;16.00;;
14241;SDS011;7205;50.864;12.766;2022-11-20T00:31:34;24.47;;;14.50;;
14241;SDS011;7205;50.864;12.766;2022-11-20T00:34:01;26.47;;;15.37;;
14241;SDS011;7205;50.864;12.766;2022-11-20T00:36:29;27.47;;;15.63;;
14241;SDS011;7205;50.864;12.766;2022-11-20T00:38:59;23.23;;;14.50;;
14241;SDS011;7205;50.864;12.766;2022-11-20T00:41:31;25.43;;;14.73;;
14241;SDS011;7205;50.864;12.766;2022-11-20T00:44:01;28.13;;;14.97;;
14241;SDS011;7205;50.864;12.766;2022-11-20T00:46:27;23.80;;;14.63;;
14241;SDS011;7205;50.864;12.766;2022-11-20T00:48:54;26.47;;;14.93;;
14241;SDS011;7205;50.864;12.766;2022-11-20T00:51:25;24.87;;;15.10;;
14241;SDS011;7205;50.864;12.766;2022-11-20T00:53:54;25.10;;;14.57;;
14241;SDS011;7205;50.864;12.766;2022-11-20T00:56:25;23.73;;;14.73;;
14241;SDS011;7205;50.864;12.766;2022-11-20T00:58:54;23.87;;;15.00;;
14241;SDS011;7205;50.864;12.766;2022-11-20T01:01:24;24.33;;;14.67;;
14241;SDS011;7205;50.864;12.766;2022-11-20T01:03:52;22.50;;;14.10;;
14241;SDS011;7205;50.864;12.766;2022-11-20T01:06:21;24.40;;;14.43;;
14241;SDS011;7205;50.864;12.766;2022-11-20T01:08:50;28.40;;;15.23;;
14241;SDS011;7205;50.864;12.766;2022-11-20T01:11:19;25.67;;;14.40;;
14241;SDS011;7205;50.864;12.766;2022-11-20T01:14:06;22.43;;;13.90;;
14241;SDS011;7205;50.864;12.766;2022-11-20T01:17:47;26.90;;;14.67;;
14241;SDS011;7205;50.864;12.766;2022-11-20T01:20:14;22.63;;;13.70;;
14241;SDS011;7205;50.864;12.766;2022-11-20T01:22:41;25.30;;;13.63;;
14241;SDS011;7205;50.864;12.766;2022-11-20T01:25:07;26.03;;;15.00;;
14241;SDS011;7205;50.864;12.766;2022-11-20T01:27:34;19.43;;;13.10;;
14241;SDS011;7205;50.864;12.766;2022-11-20T01:30:03;22.63;;;13.30;;
14241;SDS011;7205;50.864;12.766;2022-11-20T01:32:30;22.67;;;14.10;;
14241;SDS011;7205;50.864;12.766;2022-11-20T01:34:57;25.50;;;15.17;;
14241;SDS011;7205;50.864;12.766;2022-11-20T01:37:24;24.07;;;13.97;;
14241;SDS011;7205;50.864;12.766;2022-11-20T01:39:51;27.43;;;15.33;;
14241;SDS011;7205;50.864;12.766;2022-11-20T01:42:18;21.77;;;14.07;;
14241;SDS011;7205;50.864;12.766;2022-11-20T01:48:04;24.47;;;13.30;;
14241;SDS011;7205;50.864;12.766;2022-11-20T01:50:32;19.13;;;12.97;;
14241;SDS011;7205;50.864;12.766;2022-11-20T01:55:46;23.07;;;13.40;;
14241;SDS011;7205;50.864;12.766;2022-11-20T01:58:30;20.10;;;12.87;;
14241;SDS011;7205;50.864;12.766;2022-11-20T02:01:00;21.23;;;12.80;;
14241;SDS011;7205;50.864;12.766;2022-11-20T02:03:29;24.43;;;14.23;;
14241;SDS011;7205;50.864;12.766;2022-11-20T02:05:57;22.70;;;12.70;;
14241;SDS011;7205;50.864;12.766;2022-11-20T02:08:30;21.73;;;13.47;;
14241;SDS011;7205;50.864;12.766;2022-11-20T02:10:58;22.87;;;13.53;;
14241;SDS011;7205;50.864;12.766;2022-11-20T02:13:25;20.43;;;13.57;;
14241;SDS011;7205;50.864;12.766;2022-11-20T02:16:10;22.03;;;13.10;;
14241;SDS011;7205;50.864;12.766;2022-11-20T02:18:44;20.33;;;12.87;;
14241;SDS011;7205;50.864;12.766;2022-11-20T02:21:17;20.43;;;12.70;;
14241;SDS011;7205;50.864;12.766;2022-11-20T02:24:03;26.57;;;13.73;;
14241;SDS011;7205;50.864;12.766;2022-11-20T02:26:33;23.63;;;13.67;;
14241;SDS011;7205;50.864;12.766;2022-11-20T02:29:03;20.63;;;12.97;;
14241;SDS011;7205;50.864;12.766;2022-11-20T02:31:34;20.87;;;12.50;;
14241;SDS011;7205;50.864;12.766;2022-11-20T02:34:03;21.00;;;13.53;;
14241;SDS011;7205;50.864;12.766;2022-11-20T02:36:30;20.47;;;13.20;;
14241;SDS011;7205;50.864;12.766;2022-11-20T02:38:59;20.83;;;12.83;;
14241;SDS011;7205;50.864;12.766;2022-11-20T02:41:31;21.33;;;12.90;;
14241;SDS011;7205;50.864;12.766;2022-11-20T02:43:59;20.73;;;12.97;;
14241;SDS011;7205;50.864;12.766;2022-11-20T02:46:26;23.97;;;13.73;;
14241;SDS011;7205;50.864;12.766;2022-11-20T02:48:53;21.67;;;13.43;;
14241;SDS011;7205;50.864;12.766;2022-11-20T02:51:20;23.93;;;13.40;;
14241;SDS011;7205;50.864;12.766;2022-11-20T02:53:47;20.17;;;12.50;;
14241;SDS011;7205;50.864;12.766;2022-11-20T02:56:13;23.07;;;13.10;;
14241;SDS011;7205;50.864;12.766;2022-11-20T02:58:42;21.70;;;12.73;;
14241;SDS011;7205;50.864;12.766;2022-11-20T03:01:09;21.47;;;13.17;;
14241;SDS011;7205;50.864;12.766;2022-11-20T03:03:35;21.80;;;12.70;;
14241;SDS011;7205;50.864;12.766;2022-11-20T03:06:02;21.13;;;12.90;;
14241;SDS011;7205;50.864;12.766;2022-11-20T03:08:29;22.03;;;13.00;;
14241;SDS011;7205;50.864;12.766;2022-11-20T03:10:56;22.13;;;13.37;;
14241;SDS011;7205;50.864;12.766;2022-11-20T03:13:24;21.93;;;12.83;;
14241;SDS011;7205;50.864;12.766;2022-11-20T03:15:52;20.43;;;13.03;;
14241;SDS011;7205;50.864;12.766;2022-11-20T03:18:19;20.73;;;12.50;;
14241;SDS011;7205;50.864;12.766;2022-11-20T03:20:46;17.57;;;12.03;;
14241;SDS011;7205;50.864;12.766;2022-11-20T03:23:13;21.33;;;12.77;;
14241;SDS011;7205;50.864;12.766;2022-11-20T03:25:40;23.80;;;13.60;;
14241;SDS011;7205;50.864;12.766;2022-11-20T03:28:07;23.13;;;13.00;;
14241;SDS011;7205;50.864;12.766;2022-11-20T03:30:34;20.90;;;12.43;;
14241;SDS011;7205;50.864;12.766;2022-11-20T03:33:02;20.97;;;12.70;;
14241;SDS011;7205;50.864;12.766;2022-11-20T03:35:29;20.20;;;12.87;;
14241;SDS011;7205;50.864;12.766;2022-11-20T03:37:57;20.17;;;12.73;;
14241;SDS011;7205;50.864;12.766;2022-11-20T03:40:24;20.40;;;12.27;;
14241;SDS011;7205;50.864;12.766;2022-11-20T03:42:50;20.03;;;12.67;;
14241;SDS011;7205;50.864;12.766;2022-11-20T03:45:17;21.87;;;13.10;;
14241;SDS011;7205;50.864;12.766;2022-11-20T03:47:45;22.70;;;13.33;;
14241;SDS011;7205;50.864;12.766;2022-11-20T03:50:13;21.50;;;12.53;;
14241;SDS011;7205;50.864;12.766;2022-11-20T03:52:41;17.63;;;11.27;;
14241;SDS011;7205;50.864;12.766;2022-11-20T03:55:08;20.27;;;11.73;;
14241;SDS011;7205;50.864;12.766;2022-11-20T03:57:34;18.83;;;12.20;;
14241;SDS011;7205;50.864;12.766;2022-11-20T04:00:01;24.17;;;13.93;;
14241;SDS011;7205;50.864;12.766;2022-11-20T04:02:29;21.10;;;12.80;;
14241;SDS011;7205;50.864;12.766;2022-11-20T04:04:56;20.77;;;12.67;;
14241;SDS011;7205;50.864;12.766;2022-11-20T04:07:24;21.37;;;12.27;;
14241;SDS011;7205;50.864;12.766;2022-11-20T04:09:51;20.73;;;13.13;;
14241;SDS011;7205;50.864;12.766;2022-11-20T04:12:18;20.80;;;12.47;;
14241;SDS011;7205;50.864;12.766;2022-11-20T04:14:45;21.13;;;12.57;;
14241;SDS011;7205;50.864;12.766;2022-11-20T04:17:11;21.97;;;12.87;;
14241;SDS011;7205;50.864;12.766;2022-11-20T04:19:38;19.83;;;12.77;;
14241;SDS011;7205;50.864;12.766;2022-11-20T04:22:05;23.17;;;12.30;;
14241;SDS011;7205;50.864;12.766;2022-11-20T04:24:33;20.57;;;13.10;;
14241;SDS011;7205;50.864;12.766;2022-11-20T04:27:00;23.07;;;13.63;;
14241;SDS011;7205;50.864;12.766;2022-11-20T04:29:27;21.17;;;13.50;;
14241;SDS011;7205;50.864;12.766;2022-11-20T04:31:54;19.53;;;12.97;;
14241;SDS011;7205;50.864;12.766;2022-11-20T04:34:20;22.47;;;13.93;;
14241;SDS011;7205;50.864;12.766;2022-11-20T04:36:47;21.47;;;12.83;;
14241;SDS011;7205;50.864;12.766;2022-11-20T04:39:14;23.40;;;14.23;;
14241;SDS011;7205;50.864;12.766;2022-11-20T04:41:43;23.00;;;13.03;;
14241;SDS011;7205;50.864;12.766;2022-11-20T04:44:10;21.20;;;12.80;;
14241;SDS011;7205;50.864;12.766;2022-11-20T04:46:38;22.70;;;12.87;;
14241;SDS011;7205;50.864;12.766;2022-11-20T04:49:06;19.13;;;11.47;;
14241;SDS011;7205;50.864;12.766;2022-11-20T04:51:34;20.53;;;12.60;;
14241;SDS011;7205;50.864;12.766;2022-11-20T04:54:01;17.57;;;10.83;;
14241;SDS011;7205;50.864;12.766;2022-11-20T04:56:30;21.10;;;12.60;;
14241;SDS011;7205;50.864;12.766;2022-11-20T04:59:01;18.83;;;11.80;;
14241;SDS011;7205;50.864;12.766;2022-11-20T05:01:28;18.50;;;12.10;;
14241;SDS011;7205;50.864;12.766;2022-11-20T05:03:55;20.20;;;12.33;;
14241;SDS011;7205;50.864;12.766;2022-11-20T05:06:22;19.87;;;12.53;;
14241;SDS011;7205;50.864;12.766;2022-11-20T05:08:49;22.10;;;12.60;;
14241;SDS011;7205;50.864;12.766;2022-11-20T05:11:16;18.57;;;11.50;;
14241;SDS011;7205;50.864;12.766;2022-11-20T05:13:44;19.67;;;12.30;;
14241;SDS011;7205;50.864;12.766;2022-11-20T05:16:13;18.00;;;11.60;;
14241;SDS011;7205;50.864;12.766;2022-11-20T05:18:41;18.53;;;11.30;;
14241;SDS011;7205;50.864;12.766;2022-11-20T05:21:09;18.30;;;11.27;;
14241;SDS011;7205;50.864;12.766;2022-11-20T05:23:36;17.10;;;10.73;;
14241;SDS011;7205;50.864;12.766;2022-11-20T05:26:04;17.07;;;10.83;;
14241;SDS011;7205;50.864;12.766;2022-11-20T05:28:31;19.93;;;11.77;;
14241;SDS011;7205;50.864;12.766;2022-11-20T05:31:03;16.80;;;10.83;;
14241;SDS011;7205;50.864;12.766;2022-11-20T05:33:32;19.13;;;11.77;;
14241;SDS011;7205;50.864;12.766;2022-11-20T05:36:00;18.77;;;11.70;;
14241;SDS011;7205;50.864;12.766;2022-11-20T05:38:27;19.03;;;11.43;;
14241;SDS011;7205;50.864;12.766;2022-11-20T05:40:54;18.00;;;11.60;;
14241;SDS011;7205;50.864;12.766;2022-11-20T05:43:20;18.57;;;11.57;;
14241;SDS011;7205;50.864;12.766;2022-11-20T05:45:54;19.97;;;12.00;;
14241;SDS011;7205;50.864;12.766;2022-11-20T05:48:20;21.33;;;11.77;;
14241;SDS011;7205;50.864;12.766;2022-11-20T05:50:49;13.63;;;9.20;;
14241;SDS011;7205;50.864;12.766;2022-11-20T05:53:16;12.70;;;8.47;;
14241;SDS011;7205;50.864;12.766;2022-11-20T05:55:43;11.73;;;7.37;;
14241;SDS011;7205;50.864;12.766;2022-11-20T05:58:10;12.90;;;8.23;;
14241;SDS011;7205;50.864;12.766;2022-11-20T06:00:36;13.93;;;8.90;;
14241;SDS011;7205;50.864;12.766;2022-11-20T06:03:04;17.20;;;10.23;;
14241;SDS011;7205;50.864;12.766;2022-11-20T06:05:31;15.60;;;9.97;;
14241;SDS011;7205;50.864;12.766;2022-11-20T06:08:01;18.60;;;11.03;;
14241;SDS011;7205;50.864;12.766;2022-11-20T06:10:28;16.47;;;10.57;;
14241;SDS011;7205;50.864;12.766;2022-11-20T06:12:56;17.00;;;9.97;;
14241;SDS011;7205;50.864;12.766;2022-11-20T06:15:23;13.93;;;9.00;;
14241;SDS011;7205;50.864;12.766;2022-11-20T06:17:51;13.73;;;8.27;;
14241;SDS011;7205;50.864;12.766;2022-11-20T06:20:18;12.97;;;8.20;;
14241;SDS011;7205;50.864;12.766;2022-11-20T06:22:45;11.57;;;7.97;;
14241;SDS011;7205;50.864;12.766;2022-11-20T06:25:13;14.00;;;8.73;;
14241;SDS011;7205;50.864;12.766;2022-11-20T06:27:40;10.17;;;6.90;;
14241;SDS011;7205;50.864;12.766;2022-11-20T06:30:08;9.83;;;7.10;;
14241;SDS011;7205;50.864;12.766;2022-11-20T06:32:35;9.57;;;6.60;;
14241;SDS011;7205;50.864;12.766;2022-11-20T06:35:02;10.60;;;6.43;;
14241;SDS011;7205;50.864;12.766;2022-11-20T06:37:30;10.00;;;5.53;;
14241;SDS011;7205;50.864;12.766;2022-11-20T06:39:57;7.20;;;5.30;;
14241;SDS011;7205;50.864;12.766;2022-11-20T06:42:25;7.40;;;5.40;;
14241;SDS011;7205;50.864;12.766;2022-11-20T06:44:52;7.33;;;5.03;;
14241;SDS011;7205;50.864;12.766;2022-11-20T06:47:18;9.93;;;7.13;;
14241;SDS011;7205;50.864;12.766;2022-11-20T06:49:45;8.00;;;5.90;;
14241;SDS011;7205;50.864;12.766;2022-11-20T06:52:12;6.10;;;4.47;;
14241;SDS011;7205;50.864;12.766;2022-11-20T06:54:39;9.00;;;5.77;;
14241;SDS011;7205;50.864;12.766;2022-11-20T06:57:06;6.63;;;5.20;;
14241;SDS011;7205;50.864;12.766;2022-11-20T06:59:34;10.80;;;6.83;;
14241;SDS011;7205;50.864;12.766;2022-11-20T07:02:01;7.37;;;5.10;;
14241;SDS011;7205;50.864;12.766;2022-11-20T07:04:27;13.00;;;6.80;;
14241;SDS011;7205;50.864;12.766;2022-11-20T07:06:54;15.30;;;9.80;;
14241;SDS011;7205;50.864;12.766;2022-11-20T07:09:21;9.93;;;6.70;;
14241;SDS011;7205;50.864;12.766;2022-11-20T07:11:48;8.27;;;5.57;;
14241;SDS011;7205;50.864;12.766;2022-11-20T07:14:15;9.50;;;6.13;;
14241;SDS011;7205;50.864;12.766;2022-11-20T07:16:43;7.07;;;5.53;;
14241;SDS011;7205;50.864;12.766;2022-11-20T07:19:10;9.40;;;6.27;;
14241;SDS011;7205;50.864;12.766;2022-11-20T07:21:37;8.77;;;5.80;;
14241;SDS011;7205;50.864;12.766;2022-11-20T07:24:04;11.50;;;6.93;;
14241;SDS011;7205;50.864;12.766;2022-11-20T07:26:31;9.43;;;6.17;;
14241;SDS011;7205;50.864;12.766;2022-11-20T07:28:58;12.60;;;7.50;;
14241;SDS011;7205;50.864;12.766;2022-11-20T07:31:25;44.03;;;25.27;;
14241;SDS011;7205;50.864;12.766;2022-11-20T07:33:53;7.37;;;5.70;;
14241;SDS011;7205;50.864;12.766;2022-11-20T07:36:19;10.73;;;6.63;;
14241;SDS011;7205;50.864;12.766;2022-11-20T07:38:46;8.60;;;6.00;;
14241;SDS011;7205;50.864;12.766;2022-11-20T07:41:13;9.07;;;6.47;;
14241;SDS011;7205;50.864;12.766;2022-11-20T07:43:41;10.33;;;7.60;;
14241;SDS011;7205;50.864;12.766;2022-11-20T07:46:08;10.17;;;6.57;;
14241;SDS011;7205;50.864;12.766;2022-11-20T07:48:35;9.80;;;6.53;;
14241;SDS011;7205;50.864;12.766;2022-11-20T07:51:03;37.10;;;22.20;;
14241;SDS011;7205;50.864;12.766;2022-11-20T07:53:31;23.63;;;14.23;;
14241;SDS011;7205;50.864;12.766;2022-11-20T07:55:59;24.43;;;15.20;;
14241;SDS011;7205;50.864;12.766;2022-11-20T07:58:26;14.30;;;9.40;;
14241;SDS011;7205;50.864;12.766;2022-11-20T08:00:55;14.87;;;9.03;;
14241;SDS011;7205;50.864;12.766;2022-11-20T08:03:22;11.83;;;7.70;;
14241;SDS011;7205;50.864;12.766;2022-11-20T08:05:49;10.23;;;7.20;;
14241;SDS011;7205;50.864;12.766;2022-11-20T08:08:17;10.07;;;6.87;;
14241;SDS011;7205;50.864;12.766;2022-11-20T08:10:44;8.70;;;6.23;;
14241;SDS011;7205;50.864;12.766;2022-11-20T08:13:13;9.50;;;6.30;;
14241;SDS011;7205;50.864;12.766;2022-11-20T08:15:58;8.93;;;6.67;;
14241;SDS011;7205;50.864;12.766;2022-11-20T08:18:25;9.33;;;6.70;;
14241;SDS011;7205;50.864;12.766;2022-11-20T08:20:51;10.00;;;7.30;;
14241;SDS011;7205;50.864;12.766;2022-11-20T08:23:20;12.30;;;8.10;;
14241;SDS011;7205;50.864;12.766;2022-11-20T08:25:49;10.07;;;7.07;;
14241;SDS011;7205;50.864;12.766;2022-11-20T08:28:16;12.33;;;8.20;;
14241;SDS011;7205;50.864;12.766;2022-11-20T08:30:43;9.80;;;6.70;;
14241;SDS011;7205;50.864;12.766;2022-11-20T08:33:11;9.73;;;7.30;;
14241;SDS011;7205;50.864;12.766;2022-11-20T08:35:37;12.00;;;8.40;;
14241;SDS011;7205;50.864;12.766;2022-11-20T08:38:06;9.03;;;7.03;;
14241;SDS011;7205;50.864;12.766;2022-11-20T08:40:34;11.53;;;7.50;;
14241;SDS011;7205;50.864;12.766;2022-11-20T08:43:01;10.93;;;7.27;;
14241;SDS011;7205;50.864;12.766;2022-11-20T10:33:51;11.50;;;8.20;;
14241;SDS011;7205;50.864;12.766;2022-11-20T10:36:43;10.00;;;7.40;;
14241;SDS011;7205;50.864;12.766;2022-11-20T10:43:49;11.80;;;8.13;;
14241;SDS011;7205;50.864;12.766;2022-11-20T10:46:20;12.27;;;8.73;;
14241;SDS011;7205;50.864;12.766;2022-11-20T10:48:50;11.70;;;7.60;;
14241;SDS011;7205;50.864;12.766;2022-11-20T10:51:30;10.80;;;8.10;;
14241;SDS011;7205;50.864;12.766;2022-11-20T10:54:06;11.07;;;8.10;;
14241;SDS011;7205;50.864;12.766;2022-11-20T10:56:39;8.90;;;7.23;;
14241;SDS011;7205;50.864;12.766;2022-11-20T10:59:19;9.93;;;7.63;;
14241;SDS011;7205;50.864;12.766;2022-11-20T11:01:59;9.63;;;7.30;;
14241;SDS011;7205;50.864;12.766;2022-11-20T11:04:33;10.33;;;7.57;;
14241;SDS011;7205;50.864;12.766;2022-11-20T11:07:05;10.00;;;8.30;;
14241;SDS011;7205;50.864;12.766;2022-11-20T11:09:38;11.40;;;8.40;;
14241;SDS011;7205;50.864;12.766;2022-11-20T11:12:09;11.77;;;8.20;;
14241;SDS011;7205;50.864;12.766;2022-11-20T11:14:47;13.43;;;9.30;;
14241;SDS011;7205;50.864;12.766;2022-11-20T11:17:23;13.63;;;9.20;;
14241;SDS011;7205;50.864;12.766;2022-11-20T11:20:01;12.43;;;9.30;;
14241;SDS011;7205;50.864;12.766;2022-11-20T11:22:32;11.33;;;9.10;;
14241;SDS011;7205;50.864;12.766;2022-11-20T11:25:00;12.03;;;8.93;;
14241;SDS011;7205;50.864;12.766;2022-11-20T11:27:27;11.77;;;8.33;;
14241;SDS011;7205;50.864;12.766;2022-11-20T11:30:11;11.43;;;8.70;;
14241;SDS011;7205;50.864;12.766;2022-11-20T11:32:40;13.17;;;9.70;;
14241;SDS011;7205;50.864;12.766;2022-11-20T11:35:17;12.70;;;10.07;;
14241;SDS011;7205;50.864;12.766;2022-11-20T11:37:47;15.13;;;10.67;;
14241;SDS011;7205;50.864;12.766;2022-11-20T11:40:16;15.33;;;10.73;;
14241;SDS011;7205;50.864;12.766;2022-11-20T11:42:46;13.23;;;8.83;;
14241;SDS011;7205;50.864;12.766;2022-11-20T11:45:20;13.10;;;10.07;;
14241;SDS011;7205;50.864;12.766;2022-11-20T11:47:47;12.23;;;9.30;;
14241;SDS011;7205;50.864;12.766;2022-11-20T11:50:20;10.13;;;7.93;;
14241;SDS011;7205;50.864;12.766;2022-11-20T11:52:51;10.93;;;8.40;;
14241;SDS011;7205;50.864;12.766;2022-11-20T11:55:26;10.07;;;8.10;;
14241;SDS011;7205;50.864;12.766;2022-11-20T11:58:01;11.33;;;9.10;;
14241;SDS011;7205;50.864;12.766;2022-11-20T12:00:36;11.77;;;8.90;;
14241;SDS011;7205;50.864;12.766;2022-11-20T12:03:09;13.60;;;9.37;;
14241;SDS011;7205;50.864;12.766;2022-11-20T12:05:43;13.07;;;9.10;;
14241;SDS011;7205;50.864;12.766;2022-11-20T12:08:17;14.70;;;10.20;;
14241;SDS011;7205;50.864;12.766;2022-11-20T12:10:50;13.80;;;9.73;;
14241;SDS011;7205;50.864;12.766;2022-11-20T12:13:26;12.80;;;9.40;;
14241;SDS011;7205;50.864;12.766;2022-11-20T12:16:01;14.33;;;10.20;;
14241;SDS011;7205;50.864;12.766;2022-11-20T12:18:29;11.60;;;9.17;;
14241;SDS011;7205;50.864;12.766;2022-11-20T12:21:02;11.33;;;8.80;;
14241;SDS011;7205;50.864;12.766;2022-11-20T12:23:38;10.97;;;8.57;;
14241;SDS011;7205;50.864;12.766;2022-11-20T12:26:17;12.33;;;7.87;;
14241;SDS011;7205;50.864;12.766;2022-11-20T12:29:06;9.47;;;7.73;;
14241;SDS011;7205;50.864;12.766;2022-11-20T12:31:46;10.70;;;7.90;;
14241;SDS011;7205;50.864;12.766;2022-11-20T12:34:35;8.37;;;7.20;;
14241;SDS011;7205;50.864;12.766;2022-11-20T12:37:28;10.10;;;7.87;;
14241;SDS011;7205;50.864;12.766;2022-11-20T12:40:06;10.57;;;7.93;;
14241;SDS011;7205;50.864;12.766;2022-11-20T12:42:52;11.07;;;7.87;;
14241;SDS011;7205;50.864;12.766;2022-11-20T12:45:54;9.10;;;7.60;;
14241;SDS011;7205;50.864;12.766;2022-11-20T12:51:50;12.73;;;9.00;;
14241;SDS011;7205;50.864;12.766;2022-11-20T12:54:36;10.10;;;8.23;;
14241;SDS011;7205;50.864;12.766;2022-11-20T12:57:16;11.83;;;7.97;;
14241;SDS011;7205;50.864;12.766;2022-11-20T13:02:44;12.30;;;9.13;;
14241;SDS011;7205;50.864;12.766;2022-11-20T13:05:35;11.13;;;9.00;;
14241;SDS011;7205;50.864;12.766;2022-11-20T13:08:08;13.50;;;10.33;;
14241;SDS011;7205;50.864;12.766;2022-11-20T13:10:48;15.47;;;10.73;;
14241;SDS011;7205;50.864;12.766;2022-11-20T13:13:19;13.30;;;10.30;;
14241;SDS011;7205;50.864;12.766;2022-11-20T13:15:54;15.80;;;10.77;;
14241;SDS011;7205;50.864;12.766;2022-11-20T13:18:26;12.73;;;9.47;;
14241;SDS011;7205;50.864;12.766;2022-11-20T13:20:56;13.37;;;9.57;;
14241;SDS011;7205;50.864;12.766;2022-11-20T13:23:23;13.93;;;9.50;;
14241;SDS011;7205;50.864;12.766;2022-11-20T13:26:03;14.07;;;9.63;;
14241;SDS011;7205;50.864;12.766;2022-11-20T13:28:32;13.70;;;9.20;;
14241;SDS011;7205;50.864;12.766;2022-11-20T13:30:59;12.37;;;9.43;;
14241;SDS011;7205;50.864;12.766;2022-11-20T13:33:28;14.40;;;9.70;;
14241;SDS011;7205;50.864;12.766;2022-11-20T13:35:57;12.97;;;9.77;;
14241;SDS011;7205;50.864;12.766;2022-11-20T13:38:26;13.97;;;9.60;;
14241;SDS011;7205;50.864;12.766;2022-11-20T13:40:54;13.17;;;9.77;;
14241;SDS011;7205;50.864;12.766;2022-11-20T13:43:26;12.03;;;9.13;;
14241;SDS011;7205;50.864;12.766;2022-11-20T13:45:56;14.93;;;9.93;;
14241;SDS011;7205;50.864;12.766;2022-11-20T13:48:24;14.93;;;9.97;;
14241;SDS011;7205;50.864;12.766;2022-11-20T13:50:59;16.17;;;10.10;;
14241;SDS011;7205;50.864;12.766;2022-11-20T13:53:37;13.50;;;9.87;;
14241;SDS011;7205;50.864;12.766;2022-11-20T13:56:30;15.67;;;9.73;;
14241;SDS011;7205;50.864;12.766;2022-11-20T13:59:09;13.97;;;9.53;;
14241;SDS011;7205;50.864;12.766;2022-11-20T14:01:48;14.23;;;9.53;;
14241;SDS011;7205;50.864;12.766;2022-11-20T14:04:17;13.13;;;9.53;;
14241;SDS011;7205;50.864;12.766;2022-11-20T14:06:58;10.27;;;8.07;;
14241;SDS011;7205;50.864;12.766;2022-11-20T14:09:26;10.80;;;8.50;;
14241;SDS011;7205;50.864;12.766;2022-11-20T14:11:57;8.33;;;6.47;;
14241;SDS011;7205;50.864;12.766;2022-11-20T14:14:26;10.23;;;7.73;;
14241;SDS011;7205;50.864;12.766;2022-11-20T14:17:04;8.80;;;7.57;;
14241;SDS011;7205;50.864;12.766;2022-11-20T14:19:32;7.33;;;6.00;;
14241;SDS011;7205;50.864;12.766;2022-11-20T14:22:16;29.70;;;8.27;;
14241;SDS011;7205;50.864;12.766;2022-11-20T14:24:45;9.37;;;7.20;;
14241;SDS011;7205;50.864;12.766;2022-11-20T14:27:28;9.07;;;7.00;;
14241;SDS011;7205;50.864;12.766;2022-11-20T14:29:57;7.90;;;6.97;;
14241;SDS011;7205;50.864;12.766;2022-11-20T14:32:31;9.00;;;7.03;;
14241;SDS011;7205;50.864;12.766;2022-11-20T14:35:13;9.00;;;7.43;;
14241;SDS011;7205;50.864;12.766;2022-11-20T14:37:45;10.00;;;8.37;;
14241;SDS011;7205;50.864;12.766;2022-11-20T14:40:21;11.70;;;8.83;;
14241;SDS011;7205;50.864;12.766;2022-11-20T14:42:53;9.87;;;7.30;;
14241;SDS011;7205;50.864;12.766;2022-11-20T14:45:22;9.53;;;7.10;;
14241;SDS011;7205;50.864;12.766;2022-11-20T14:47:51;11.50;;;8.67;;
14241;SDS011;7205;50.864;12.766;2022-11-20T14:50:19;11.03;;;8.33;;
14241;SDS011;7205;50.864;12.766;2022-11-20T14:52:50;9.33;;;7.23;;
14241;SDS011;7205;50.864;12.766;2022-11-20T14:55:31;10.77;;;7.87;;
14241;SDS011;7205;50.864;12.766;2022-11-20T15:07:47;10.50;;;7.87;;
14241;SDS011;7205;50.864;12.766;2022-11-20T15:10:20;12.27;;;8.10;;
14241;SDS011;7205;50.864;12.766;2022-11-20T15:13:05;13.47;;;9.87;;
14241;SDS011;7205;50.864;12.766;2022-11-20T15:15:39;12.60;;;8.97;;
14241;SDS011;7205;50.864;12.766;2022-11-20T15:18:12;13.43;;;9.63;;
14241;SDS011;7205;50.864;12.766;2022-11-20T15:20:41;16.53;;;11.03;;
14241;SDS011;7205;50.864;12.766;2022-11-20T15:26:58;15.73;;;10.10;;
14241;SDS011;7205;50.864;12.766;2022-11-20T15:29:26;16.03;;;11.30;;
14241;SDS011;7205;50.864;12.766;2022-11-20T15:31:53;17.03;;;11.10;;
14241;SDS011;7205;50.864;12.766;2022-11-20T15:34:22;15.67;;;11.00;;
14241;SDS011;7205;50.864;12.766;2022-11-20T15:36:49;15.53;;;10.27;;
14241;SDS011;7205;50.864;12.766;2022-11-20T15:39:21;15.47;;;10.73;;
14241;SDS011;7205;50.864;12.766;2022-11-20T15:41:48;13.97;;;9.90;;
14241;SDS011;7205;50.864;12.766;2022-11-20T15:44:15;13.63;;;10.00;;
14241;SDS011;7205;50.864;12.766;2022-11-20T15:46:42;14.20;;;9.17;;
14241;SDS011;7205;50.864;12.766;2022-11-20T15:49:12;11.97;;;9.40;;
14241;SDS011;7205;50.864;12.766;2022-11-20T15:51:42;12.93;;;9.40;;
14241;SDS011;7205;50.864;12.766;2022-11-20T15:54:12;12.50;;;9.03;;
14241;SDS011;7205;50.864;12.766;2022-11-20T15:56:41;14.33;;;9.40;;
14241;SDS011;7205;50.864;12.766;2022-11-20T16:12:20;13.87;;;10.30;;
14241;SDS011;7205;50.864;12.766;2022-11-20T16:15:01;15.40;;;10.20;;
14241;SDS011;7205;50.864;12.766;2022-11-20T16:17:45;15.57;;;10.10;;
14241;SDS011;7205;50.864;12.766;2022-11-20T16:20:12;16.63;;;10.07;;
14241;SDS011;7205;50.864;12.766;2022-11-20T16:22:41;13.57;;;9.77;;
14241;SDS011;7205;50.864;12.766;2022-11-20T16:29:31;11.03;;;8.83;;
14241;SDS011;7205;50.864;12.766;2022-11-20T16:34:45;12.93;;;9.30;;
14241;SDS011;7205;50.864;12.766;2022-11-20T17:03:34;12.07;;;8.97;;
14241;SDS011;7205;50.864;12.766;2022-11-20T17:06:09;14.33;;;10.63;;
14241;SDS011;7205;50.864;12.766;2022-11-20T17:08:37;16.43;;;11.07;;
14241;SDS011;7205;50.864;12.766;2022-11-20T17:14:39;15.03;;;9.97;;
14241;SDS011;7205;50.864;12.766;2022-11-20T17:17:28;14.17;;;10.20;;
14241;SDS011;7205;50.864;12.766;2022-11-20T17:20:59;14.47;;;9.60;;
14241;SDS011;7205;50.864;12.766;2022-11-20T17:26:19;14.00;;;9.30;;
14241;SDS011;7205;50.864;12.766;2022-11-20T17:28:52;12.53;;;9.43;;
14241;SDS011;7205;50.864;12.766;2022-11-20T17:31:52;13.73;;;9.73;;
14241;SDS011;7205;50.864;12.766;2022-11-20T17:34:27;12.47;;;9.20;;
14241;SDS011;7205;50.864;12.766;2022-11-20T17:37:12;14.77;;;10.13;;
14241;SDS011;7205;50.864;12.766;2022-11-20T17:39:42;14.47;;;9.80;;
14241;SDS011;7205;50.864;12.766;2022-11-20T17:42:09;12.73;;;9.67;;
14241;SDS011;7205;50.864;12.766;2022-11-20T17:49:11;13.27;;;9.40;;
14241;SDS011;7205;50.864;12.766;2022-11-20T17:51:42;12.23;;;8.90;;
14241;SDS011;7205;50.864;12.766;2022-11-20T17:54:09;12.27;;;9.17;;
14241;SDS011;7205;50.864;12.766;2022-11-20T17:56:37;13.67;;;9.73;;
14241;SDS011;7205;50.864;12.766;2022-11-20T18:02:37;13.03;;;9.00;;
14241;SDS011;7205;50.864;12.766;2022-11-20T18:05:04;14.13;;;9.30;;
14241;SDS011;7205;50.864;12.766;2022-11-20T18:07:34;17.23;;;10.53;;
14241;SDS011;7205;50.864;12.766;2022-11-20T18:19:49;12.33;;;8.70;;
14241;SDS011;7205;50.864;12.766;2022-11-20T18:47:55;13.07;;;9.67;;